KNQA/NQA METAR and TAF weather

Enter ICAO airport designator
Station Type Date Time Source
KNQA METAR 2019/02/21 11:50 UTC NOAA

KNQA 211150Z 07003KT 10SM CLR M01/M01 A3013


Station Type Date Time Source
KNQA Decoded METAR 2019/02/21 11:50 UTC NOAA

Millington, Millington Municipal Airport, TN, United States (KNQA) 35-21-24N 089-52-13W
Feb 21, 2019 - 06:50 AM EST / 2019.02.21 1150 UTC
Wind: from the ENE (070 degrees) at 3 MPH (3 KT):0
Visibility: 10 mile(s):0
Sky conditions: clear
Temperature: 30 F (-1 C)
Dew Point: 30 F (-1 C)
Relative Humidity: 100%
Pressure (altimeter): 30.13 in. Hg (1020 hPa)
ob: KNQA 211150Z 07003KT 10SM CLR M01/M01 A3013
cycle: 12

Station Type Date Time Source
KNQA TAF UTC NOAA

Error!


Example: see airport list